createdAt,value
2022-08-25T00:00:05.106Z,45.51
2022-08-25T00:00:37.277Z,45.49
2022-08-25T00:01:14.385Z,45.50
2022-08-25T00:01:52.084Z,45.99
2022-08-25T00:02:24.392Z,45.65
2022-08-25T00:02:59.269Z,45.98
2022-08-25T00:03:35.871Z,46.17
2022-08-25T00:04:14.107Z,46.04
2022-08-25T00:04:46.766Z,45.95
2022-08-25T00:05:32.424Z,46.11
2022-08-25T00:06:09.040Z,46.51
2022-08-25T00:06:43.733Z,46.36
2022-08-25T00:07:18.691Z,46.55
2022-08-25T00:07:51.027Z,46.70
2022-08-25T00:08:23.219Z,46.89
2022-08-25T00:08:59.988Z,46.63
2022-08-25T00:09:34.551Z,46.87
2022-08-25T00:10:09.319Z,46.68
2022-08-25T00:10:44.110Z,46.92
2022-08-25T00:11:34.693Z,46.55
2022-08-25T00:12:09.819Z,46.86
2022-08-25T00:12:42.009Z,47.06
2022-08-25T00:13:14.274Z,47.17
2022-08-25T00:13:51.823Z,46.90
2022-08-25T00:14:26.617Z,47.27
2022-08-25T00:15:01.936Z,47.15
2022-08-25T00:15:34.548Z,47.41
2022-08-25T00:16:07.052Z,47.40
2022-08-25T00:16:39.964Z,47.40
2022-08-25T00:17:14.670Z,47.05
2022-08-25T00:17:46.806Z,47.24
2022-08-25T00:18:19.839Z,47.21
2022-08-25T00:18:58.334Z,47.25
2022-08-25T00:19:33.459Z,47.36
2022-08-25T00:20:09.631Z,47.44
2022-08-25T00:20:48.823Z,47.61
2022-08-25T00:21:21.866Z,47.70
2022-08-25T00:21:54.299Z,47.63
2022-08-25T00:22:29.345Z,47.85
2022-08-25T00:23:01.880Z,47.84
2022-08-25T00:23:34.645Z,47.48
2022-08-25T00:24:10.502Z,47.45
2022-08-25T00:24:42.858Z,47.89
2022-08-25T00:25:15.354Z,47.49
2022-08-25T00:25:50.990Z,47.72
2022-08-25T00:26:23.953Z,47.76
2022-08-25T00:26:59.039Z,47.47
2022-08-25T00:27:34.225Z,47.54
2022-08-25T00:28:08.486Z,47.61
2022-08-25T00:28:40.967Z,47.64
2022-08-25T00:29:16.536Z,47.56
2022-08-25T00:29:48.725Z,47.34
2022-08-25T00:30:21.034Z,47.79
2022-08-25T00:30:55.805Z,47.43
2022-08-25T00:31:38.732Z,47.44
2022-08-25T00:32:13.980Z,47.45
2022-08-25T00:32:55.164Z,47.70
2022-08-25T00:33:31.402Z,47.96
2022-08-25T00:34:07.669Z,47.71
2022-08-25T00:34:40.101Z,47.86
2022-08-25T00:35:12.649Z,47.96
2022-08-25T00:35:50.485Z,47.60
2022-08-25T00:36:22.691Z,47.72
2022-08-25T00:36:54.898Z,47.95
2022-08-25T00:37:29.699Z,47.61
2022-08-25T00:38:02.394Z,47.60
2022-08-25T00:38:34.758Z,47.73
2022-08-25T00:39:10.981Z,48.12
2022-08-25T00:39:43.220Z,47.72
2022-08-25T00:40:18.113Z,47.73
2022-08-25T00:41:06.089Z,48.35
2022-08-25T00:41:42.389Z,48.01
2022-08-25T00:42:16.264Z,48.41
2022-08-25T00:42:48.651Z,48.39
2022-08-25T00:43:25.097Z,48.44
2022-08-25T00:44:00.266Z,48.19
2022-08-25T00:44:33.366Z,48.16
2022-08-25T00:45:09.680Z,48.06
2022-08-25T00:45:41.848Z,48.24
2022-08-25T00:46:18.251Z,48.11
2022-08-25T00:46:56.703Z,48.22
2022-08-25T00:47:28.902Z,48.47
2022-08-25T00:48:01.513Z,48.67
2022-08-25T00:48:36.455Z,48.48
2022-08-25T00:49:24.629Z,48.37
2022-08-25T00:50:00.254Z,48.70
2022-08-25T00:50:37.599Z,48.27
2022-08-25T00:51:15.018Z,48.60
2022-08-25T00:51:51.290Z,48.41
2022-08-25T00:52:28.703Z,48.45
2022-08-25T00:53:03.419Z,48.63
2022-08-25T00:53:36.307Z,48.48
2022-08-25T00:54:15.989Z,48.41
2022-08-25T00:54:51.127Z,48.68
2022-08-25T00:55:27.727Z,48.84
2022-08-25T00:56:02.651Z,48.92
2022-08-25T00:56:35.438Z,48.52
2022-08-25T00:57:09.367Z,48.40
2022-08-25T00:57:49.056Z,48.88
2022-08-25T00:58:25.857Z,49.03
2022-08-25T00:58:59.805Z,49.10
2022-08-25T00:59:34.826Z,48.67
2022-08-25T01:00:14.136Z,48.69
2022-08-25T01:00:49.610Z,48.72
2022-08-25T01:01:24.441Z,48.87
2022-08-25T01:01:57.709Z,48.92
2022-08-25T01:02:29.993Z,48.97
2022-08-25T01:03:05.197Z,48.75
2022-08-25T01:03:37.458Z,48.82
2022-08-25T01:04:09.655Z,48.78
2022-08-25T01:04:47.216Z,48.82
2022-08-25T01:05:24.264Z,49.14
2022-08-25T01:05:57.205Z,49.21
2022-08-25T01:06:36.457Z,48.89
2022-08-25T01:07:17.421Z,49.13
2022-08-25T01:07:50.837Z,49.11
2022-08-25T01:08:28.963Z,49.02
2022-08-25T01:09:04.098Z,49.33
2022-08-25T01:09:38.084Z,49.26
2022-08-25T01:10:12.117Z,49.37
2022-08-25T01:10:47.979Z,49.32
2022-08-25T01:11:20.231Z,49.44
2022-08-25T01:11:54.484Z,49.15
2022-08-25T01:12:29.332Z,49.25
2022-08-25T01:13:06.506Z,49.36
2022-08-25T01:13:51.332Z,49.42
2022-08-25T01:14:27.812Z,49.15
2022-08-25T01:15:02.217Z,49.60
2022-08-25T01:15:35.227Z,49.41
2022-08-25T01:16:13.119Z,49.68
2022-08-25T01:16:46.461Z,49.68
2022-08-25T01:17:23.358Z,49.43
2022-08-25T01:18:01.378Z,49.77
2022-08-25T01:18:44.950Z,49.55
2022-08-25T01:19:17.377Z,49.42
2022-08-25T01:19:52.136Z,49.55
2022-08-25T01:20:29.626Z,49.66
2022-08-25T01:21:04.524Z,49.34
2022-08-25T01:21:43.957Z,49.39
2022-08-25T01:22:17.452Z,49.87
2022-08-25T01:22:55.020Z,49.69
2022-08-25T01:23:30.298Z,49.68
2022-08-25T01:24:02.653Z,49.79
2022-08-25T01:24:40.839Z,49.62
2022-08-25T01:25:31.327Z,49.37
2022-08-25T01:26:05.610Z,49.17
2022-08-25T01:26:37.870Z,49.46
2022-08-25T01:27:13.471Z,49.51
2022-08-25T01:27:45.776Z,49.13
2022-08-25T01:28:20.262Z,49.39
2022-08-25T01:29:07.562Z,49.39
2022-08-25T01:29:42.995Z,49.23
2022-08-25T01:30:15.454Z,49.41
2022-08-25T01:30:48.254Z,49.16
2022-08-25T01:31:23.940Z,48.92
2022-08-25T01:32:01.382Z,49.46
2022-08-25T01:32:34.983Z,49.46
2022-08-25T01:33:09.155Z,49.35
2022-08-25T01:33:43.907Z,49.25
2022-08-25T01:34:17.595Z,48.94
2022-08-25T01:34:49.873Z,49.12
2022-08-25T01:35:27.206Z,49.06
2022-08-25T01:35:59.623Z,49.49
2022-08-25T01:36:35.726Z,49.34
2022-08-25T01:37:12.054Z,49.51
2022-08-25T01:37:45.739Z,49.07
2022-08-25T01:38:18.675Z,49.54
2022-08-25T01:38:54.094Z,49.62
2022-08-25T01:39:28.850Z,49.76
2022-08-25T01:40:03.690Z,49.43
2022-08-25T01:40:37.159Z,49.71
2022-08-25T01:41:09.289Z,49.56
2022-08-25T01:41:52.034Z,49.71
2022-08-25T01:42:33.225Z,49.87
2022-08-25T01:43:14.887Z,49.81
2022-08-25T01:43:47.126Z,49.61
2022-08-25T01:44:19.558Z,50.01
2022-08-25T01:44:54.752Z,49.87
2022-08-25T01:45:27.562Z,49.58
2022-08-25T01:46:01.147Z,50.00
2022-08-25T01:46:36.671Z,49.68
2022-08-25T01:47:09.822Z,49.65
2022-08-25T01:47:42.235Z,49.53
2022-08-25T01:48:18.530Z,49.90
2022-08-25T01:48:50.690Z,49.71
2022-08-25T01:49:22.951Z,50.07
2022-08-25T01:49:57.968Z,49.97
2022-08-25T01:50:31.142Z,49.91
2022-08-25T01:51:03.329Z,49.94
2022-08-25T01:51:45.911Z,49.86
2022-08-25T01:52:24.085Z,49.69
2022-08-25T01:53:00.784Z,50.09
2022-08-25T01:53:35.545Z,50.05
2022-08-25T01:54:07.673Z,49.92
2022-08-25T01:54:39.931Z,49.87
2022-08-25T01:55:14.965Z,50.28
2022-08-25T01:55:54.355Z,50.02
2022-08-25T01:56:29.236Z,50.17
2022-08-25T01:57:02.114Z,50.11
2022-08-25T01:57:34.322Z,50.29
2022-08-25T01:58:09.084Z,50.04
2022-08-25T01:58:44.831Z,50.11
2022-08-25T01:59:24.241Z,49.87
2022-08-25T01:59:56.735Z,49.94
2022-08-25T02:00:31.941Z,50.11
2022-08-25T02:01:07.881Z,49.96
2022-08-25T02:01:42.687Z,50.28
2022-08-25T02:02:15.110Z,50.51
2022-08-25T02:02:54.233Z,50.33
2022-08-25T02:03:28.995Z,50.26
2022-08-25T02:04:01.424Z,50.72
2022-08-25T02:04:37.567Z,50.64
2022-08-25T02:05:10.980Z,50.73
2022-08-25T02:05:43.128Z,50.15
2022-08-25T02:06:30.065Z,50.67
2022-08-25T02:07:07.678Z,50.27
2022-08-25T02:07:40.300Z,50.30
2022-08-25T02:08:15.194Z,50.38
2022-08-25T02:08:51.262Z,50.65
2022-08-25T02:09:26.107Z,50.75
2022-08-25T02:09:58.732Z,50.40
2022-08-25T02:10:36.025Z,50.44
2022-08-25T02:11:14.794Z,50.31
2022-08-25T02:11:47.986Z,50.37
2022-08-25T02:12:20.484Z,50.33
2022-08-25T02:12:55.278Z,50.46
2022-08-25T02:13:31.509Z,50.66
2022-08-25T02:14:04.535Z,50.87
2022-08-25T02:14:39.445Z,50.62
2022-08-25T02:15:14.708Z,50.54
2022-08-25T02:15:51.025Z,50.35
2022-08-25T02:16:29.056Z,50.75
2022-08-25T02:17:01.467Z,50.82
2022-08-25T02:17:36.783Z,51.01
2022-08-25T02:18:12.128Z,50.54
2022-08-25T02:18:45.845Z,50.88
2022-08-25T02:19:19.312Z,50.85
2022-08-25T02:19:55.899Z,50.80
2022-08-25T02:20:28.119Z,51.19
2022-08-25T02:21:00.448Z,50.93
2022-08-25T02:21:33.015Z,50.97
2022-08-25T02:22:10.529Z,50.72
2022-08-25T02:22:43.438Z,50.80
2022-08-25T02:23:23.320Z,50.82
2022-08-25T02:23:56.695Z,50.85
2022-08-25T02:24:31.733Z,51.40
2022-08-25T02:25:05.842Z,51.20
2022-08-25T02:25:40.226Z,50.97
2022-08-25T02:26:19.041Z,51.16
2022-08-25T02:26:51.857Z,51.23
2022-08-25T02:27:24.529Z,51.02
2022-08-25T02:27:59.311Z,50.89
2022-08-25T02:28:31.599Z,51.38
2022-08-25T02:29:05.568Z,51.16
2022-08-25T02:29:40.331Z,51.40
2022-08-25T02:30:14.146Z,51.02
2022-08-25T02:30:46.380Z,51.07
2022-08-25T02:31:22.943Z,51.58
2022-08-25T02:31:55.113Z,51.20
2022-08-25T02:32:28.012Z,51.08
2022-08-25T02:33:02.778Z,50.96
2022-08-25T02:33:35.035Z,51.08
2022-08-25T02:34:11.448Z,51.05
2022-08-25T02:34:43.685Z,51.31
2022-08-25T02:35:16.057Z,51.32
2022-08-25T02:35:51.926Z,51.64
2022-08-25T02:36:24.796Z,51.19
2022-08-25T02:36:57.181Z,51.30
2022-08-25T02:37:35.042Z,51.44
2022-08-25T02:38:07.868Z,51.70
2022-08-25T02:38:40.298Z,51.74
2022-08-25T02:39:15.418Z,51.72
2022-08-25T02:39:47.679Z,51.61
2022-08-25T02:40:21.513Z,51.36
2022-08-25T02:40:56.443Z,51.52
2022-08-25T02:41:31.590Z,51.53
2022-08-25T02:42:04.355Z,51.24
2022-08-25T02:42:39.443Z,51.73
2022-08-25T02:43:14.921Z,51.67
2022-08-25T02:43:48.731Z,51.79
2022-08-25T02:44:23.534Z,51.62
2022-08-25T02:44:55.939Z,51.78
2022-08-25T02:45:28.298Z,51.96
2022-08-25T02:46:03.117Z,51.37
2022-08-25T02:46:39.068Z,51.60
2022-08-25T02:47:11.270Z,51.37
2022-08-25T02:47:46.211Z,51.58
2022-08-25T02:48:18.410Z,51.56
2022-08-25T02:48:52.979Z,51.78
2022-08-25T02:49:28.476Z,51.84
2022-08-25T02:50:00.650Z,51.97
2022-08-25T02:50:33.454Z,51.52
2022-08-25T02:51:12.439Z,51.95
2022-08-25T02:51:44.646Z,51.41
2022-08-25T02:52:17.265Z,51.86
2022-08-25T02:52:55.158Z,51.78
2022-08-25T02:53:28.704Z,51.63
2022-08-25T02:54:02.698Z,51.67
2022-08-25T02:54:37.924Z,51.43
2022-08-25T02:55:14.407Z,51.54
2022-08-25T02:55:47.684Z,51.82
2022-08-25T02:56:23.894Z,51.46
2022-08-25T02:56:56.124Z,51.56
2022-08-25T02:57:31.085Z,51.53
2022-08-25T02:58:03.338Z,52.01
2022-08-25T02:58:35.694Z,51.55
2022-08-25T02:59:11.116Z,51.83
2022-08-25T02:59:43.391Z,52.06
2022-08-25T03:00:17.205Z,51.84
2022-08-25T03:00:53.069Z,51.91
2022-08-25T03:01:28.641Z,51.86
2022-08-25T03:02:03.878Z,52.15
2022-08-25T03:02:36.090Z,52.02
2022-08-25T03:03:10.049Z,52.07
2022-08-25T03:03:47.067Z,51.95
2022-08-25T03:04:19.387Z,52.09
2022-08-25T03:04:52.433Z,52.18
2022-08-25T03:05:30.273Z,52.07
2022-08-25T03:06:02.573Z,52.16
2022-08-25T03:06:37.477Z,52.00
2022-08-25T03:07:10.986Z,52.19
2022-08-25T03:07:44.847Z,52.04
2022-08-25T03:08:22.172Z,52.41
2022-08-25T03:08:54.939Z,52.50
2022-08-25T03:09:27.698Z,52.21
2022-08-25T03:10:02.694Z,52.26
2022-08-25T03:10:35.553Z,52.11
2022-08-25T03:11:07.763Z,52.26
2022-08-25T03:11:42.610Z,52.20
2022-08-25T03:12:15.127Z,52.02
2022-08-25T03:12:47.822Z,52.47
2022-08-25T03:13:20.015Z,52.15
2022-08-25T03:13:54.902Z,52.00
2022-08-25T03:14:27.147Z,51.94
2022-08-25T03:14:59.510Z,52.17
2022-08-25T03:15:37.810Z,52.01
2022-08-25T03:16:11.330Z,52.54
2022-08-25T03:16:46.314Z,52.17
2022-08-25T03:17:21.406Z,52.56
2022-08-25T03:17:55.735Z,52.12
2022-08-25T03:18:35.116Z,52.11
2022-08-25T03:19:07.373Z,52.20
2022-08-25T03:19:39.577Z,52.34
2022-08-25T03:20:15.612Z,52.52
2022-08-25T03:20:47.787Z,52.40
2022-08-25T03:21:21.269Z,52.59
2022-08-25T03:21:57.090Z,52.37
2022-08-25T03:22:29.315Z,52.49
2022-08-25T03:23:01.594Z,52.42
2022-08-25T03:23:39.082Z,52.18
2022-08-25T03:24:11.341Z,52.41
2022-08-25T03:24:43.557Z,52.31
2022-08-25T03:25:34.026Z,52.40
2022-08-25T03:26:21.769Z,52.41
2022-08-25T03:26:57.272Z,52.63
2022-08-25T03:27:30.511Z,52.64
2022-08-25T03:28:04.232Z,52.42
2022-08-25T03:28:36.649Z,52.71
2022-08-25T03:29:12.096Z,52.53
2022-08-25T03:29:44.247Z,52.32
2022-08-25T03:30:16.888Z,52.48
2022-08-25T03:30:55.751Z,52.33
2022-08-25T03:31:31.997Z,52.35
2022-08-25T03:32:05.425Z,52.22
2022-08-25T03:32:38.710Z,52.13
2022-08-25T03:33:14.039Z,52.35
2022-08-25T03:33:46.738Z,52.05
2022-08-25T03:34:22.749Z,52.26
2022-08-25T03:34:55.025Z,52.43
2022-08-25T03:35:27.313Z,52.05
2022-08-25T03:36:02.777Z,52.39
2022-08-25T03:36:37.818Z,52.39
2022-08-25T03:37:10.281Z,52.19
2022-08-25T03:37:42.490Z,52.27
2022-08-25T03:38:17.277Z,52.19
2022-08-25T03:38:52.462Z,52.33
2022-08-25T03:39:26.195Z,51.97
2022-08-25T03:40:00.995Z,52.26
2022-08-25T03:40:33.332Z,52.19
2022-08-25T03:41:12.729Z,52.14
2022-08-25T03:41:48.238Z,52.06
2022-08-25T03:42:20.433Z,52.39
2022-08-25T03:42:52.874Z,52.03
2022-08-25T03:43:27.662Z,51.94
2022-08-25T03:44:01.334Z,52.13
2022-08-25T03:44:33.829Z,52.27
2022-08-25T03:45:11.763Z,52.41
2022-08-25T03:45:45.439Z,52.25
2022-08-25T03:46:19.982Z,52.25
2022-08-25T03:46:55.639Z,52.00
2022-08-25T03:47:29.558Z,52.19
2022-08-25T03:48:01.867Z,52.53
2022-08-25T03:48:36.892Z,52.42
2022-08-25T03:49:11.955Z,52.45
2022-08-25T03:49:44.087Z,52.22
2022-08-25T03:50:21.078Z,52.04
2022-08-25T03:50:54.872Z,52.08
2022-08-25T03:51:29.477Z,52.18
2022-08-25T03:52:04.260Z,52.11
2022-08-25T03:52:42.244Z,51.93
2022-08-25T03:53:14.936Z,52.02
2022-08-25T03:53:47.306Z,52.32
2022-08-25T03:54:27.164Z,51.97
2022-08-25T03:54:59.451Z,52.11
2022-08-25T03:55:31.716Z,52.13
2022-08-25T03:56:07.598Z,52.27
2022-08-25T03:56:40.726Z,51.69
2022-08-25T03:57:16.027Z,52.24
2022-08-25T03:57:48.282Z,52.29
2022-08-25T03:58:22.502Z,51.89
2022-08-25T03:58:57.672Z,51.78
2022-08-25T03:59:30.630Z,52.26
2022-08-25T04:00:03.910Z,52.20
2022-08-25T04:00:46.681Z,51.81
2022-08-25T04:01:18.962Z,52.27
2022-08-25T04:01:55.439Z,51.87
2022-08-25T04:02:28.080Z,52.27
2022-08-25T04:03:00.398Z,51.77
2022-08-25T04:03:35.373Z,52.11
2022-08-25T04:04:09.165Z,52.12
2022-08-25T04:04:41.451Z,52.19
2022-08-25T04:05:16.779Z,51.68
2022-08-25T04:05:48.953Z,51.99
2022-08-25T04:06:24.018Z,51.84
2022-08-25T04:06:56.250Z,51.91
2022-08-25T04:07:28.613Z,51.95
2022-08-25T04:08:04.806Z,51.64
2022-08-25T04:08:38.051Z,51.60
2022-08-25T04:09:10.742Z,51.63
2022-08-25T04:09:48.323Z,51.28
2022-08-25T04:10:20.785Z,51.42
2022-08-25T04:10:52.940Z,51.74
2022-08-25T04:11:28.929Z,51.67
2022-08-25T04:12:01.294Z,51.58
2022-08-25T04:12:33.757Z,51.41
2022-08-25T04:13:08.581Z,51.66
2022-08-25T04:13:42.481Z,51.21
2022-08-25T04:14:16.582Z,51.53
2022-08-25T04:14:49.251Z,51.17
2022-08-25T04:15:27.107Z,51.60
2022-08-25T04:16:02.575Z,51.41
2022-08-25T04:16:35.877Z,51.64
2022-08-25T04:17:10.906Z,51.41
2022-08-25T04:17:43.145Z,51.64
2022-08-25T04:18:16.865Z,51.28
2022-08-25T04:18:52.495Z,51.35
2022-08-25T04:19:24.732Z,51.50
2022-08-25T04:19:57.477Z,51.36
2022-08-25T04:20:32.320Z,51.63
2022-08-25T04:21:05.638Z,51.45
2022-08-25T04:21:39.134Z,51.25
2022-08-25T04:22:14.229Z,51.65
2022-08-25T04:22:47.010Z,51.53
2022-08-25T04:23:19.154Z,51.85
2022-08-25T04:23:55.724Z,51.62
2022-08-25T04:24:27.962Z,51.88
2022-08-25T04:25:03.002Z,51.45
2022-08-25T04:25:38.596Z,51.74
2022-08-25T04:26:11.977Z,51.92
2022-08-25T04:26:46.492Z,51.83
2022-08-25T04:27:21.226Z,51.77
2022-08-25T04:27:53.487Z,51.60
2022-08-25T04:28:25.687Z,51.44
2022-08-25T04:29:02.109Z,51.80
2022-08-25T04:29:34.510Z,51.38
2022-08-25T04:30:08.116Z,51.80
2022-08-25T04:30:49.111Z,51.62
2022-08-25T04:31:24.400Z,51.76
2022-08-25T04:31:56.706Z,51.45
2022-08-25T04:32:32.336Z,51.71
2022-08-25T04:33:04.549Z,51.48
2022-08-25T04:33:38.325Z,51.59
2022-08-25T04:34:29.419Z,51.48
2022-08-25T04:35:04.511Z,51.48
2022-08-25T04:35:36.724Z,51.45
2022-08-25T04:36:14.449Z,51.44
2022-08-25T04:36:46.947Z,51.66
2022-08-25T04:37:24.953Z,51.53
2022-08-25T04:37:59.878Z,51.99
2022-08-25T04:38:32.561Z,51.46
2022-08-25T04:39:04.958Z,51.48
2022-08-25T04:39:39.841Z,51.95
2022-08-25T04:40:14.969Z,51.88
2022-08-25T04:40:56.800Z,51.94
2022-08-25T04:41:32.109Z,52.11
2022-08-25T04:42:05.607Z,51.82
2022-08-25T04:42:39.460Z,51.88
2022-08-25T04:43:14.229Z,51.86
2022-08-25T04:43:46.835Z,51.88
2022-08-25T04:44:19.129Z,52.01
2022-08-25T04:44:54.599Z,51.91
2022-08-25T04:45:26.940Z,52.17
2022-08-25T04:46:00.184Z,51.98
2022-08-25T04:46:37.072Z,51.83
2022-08-25T04:47:09.872Z,52.02
2022-08-25T04:47:42.064Z,51.88
2022-08-25T04:48:16.827Z,52.11
2022-08-25T04:48:49.678Z,52.14
2022-08-25T04:49:21.912Z,52.23
2022-08-25T04:49:56.755Z,51.81
2022-08-25T04:50:29.773Z,51.99
2022-08-25T04:51:05.591Z,51.65
2022-08-25T04:51:42.670Z,52.16
2022-08-25T04:52:14.925Z,51.92
2022-08-25T04:52:47.097Z,51.99
2022-08-25T04:53:22.242Z,52.13
2022-08-25T04:53:54.572Z,51.97
2022-08-25T04:54:28.295Z,52.22
2022-08-25T04:55:03.261Z,52.12
2022-08-25T04:55:43.059Z,51.98
2022-08-25T04:56:18.213Z,52.33
2022-08-25T04:56:58.297Z,52.18
2022-08-25T04:57:31.039Z,51.88
2022-08-25T04:58:03.668Z,51.86
2022-08-25T04:58:39.423Z,52.11
2022-08-25T04:59:14.509Z,51.96
2022-08-25T04:59:46.777Z,51.70
2022-08-25T05:00:22.088Z,51.55
2022-08-25T05:01:01.391Z,51.84
2022-08-25T05:01:34.260Z,51.86
2022-08-25T05:02:10.101Z,51.68
2022-08-25T05:02:42.428Z,51.46
2022-08-25T05:03:14.806Z,51.57
2022-08-25T05:03:49.105Z,51.98
2022-08-25T05:04:27.717Z,51.30
2022-08-25T05:05:01.584Z,51.89
2022-08-25T05:05:37.224Z,51.65
2022-08-25T05:06:15.826Z,52.08
2022-08-25T05:06:48.948Z,51.72
2022-08-25T05:07:21.235Z,51.61
2022-08-25T05:07:56.116Z,51.63
2022-08-25T05:08:28.744Z,51.60
2022-08-25T05:09:02.229Z,51.71
2022-08-25T05:09:37.997Z,51.69
2022-08-25T05:10:10.565Z,52.00
2022-08-25T05:10:45.496Z,51.58
2022-08-25T05:11:21.980Z,52.02
2022-08-25T05:11:56.146Z,51.98
2022-08-25T05:12:29.110Z,51.80
2022-08-25T05:13:04.068Z,52.19
2022-08-25T05:13:36.821Z,52.00
2022-08-25T05:14:12.277Z,52.06
2022-08-25T05:14:47.335Z,52.18
2022-08-25T05:15:34.872Z,51.71
2022-08-25T05:16:09.832Z,51.98
2022-08-25T05:16:46.288Z,51.66
2022-08-25T05:17:19.265Z,51.79
2022-08-25T05:17:56.104Z,51.66
2022-08-25T05:18:33.433Z,52.08
2022-08-25T05:19:05.824Z,51.73
2022-08-25T05:19:40.730Z,51.97
2022-08-25T05:20:12.940Z,52.30
2022-08-25T05:20:45.753Z,51.64
2022-08-25T05:21:25.076Z,51.66
2022-08-25T05:21:57.927Z,51.80
2022-08-25T05:22:33.529Z,52.35
2022-08-25T05:23:05.938Z,51.91
2022-08-25T05:23:41.273Z,52.19
2022-08-25T05:24:16.083Z,51.85
2022-08-25T05:24:49.062Z,51.61
2022-08-25T05:25:21.249Z,51.89
2022-08-25T05:25:59.527Z,51.56
2022-08-25T05:26:34.974Z,51.96
2022-08-25T05:27:07.113Z,51.66
2022-08-25T05:27:42.153Z,51.77
2022-08-25T05:28:15.322Z,51.66
2022-08-25T05:28:49.065Z,51.84
2022-08-25T05:29:24.052Z,51.71
2022-08-25T05:29:56.232Z,51.64
2022-08-25T05:30:28.632Z,51.84
2022-08-25T05:31:05.640Z,51.60
2022-08-25T05:31:43.074Z,51.91
2022-08-25T05:32:18.813Z,51.76
2022-08-25T05:32:51.023Z,51.82
2022-08-25T05:33:23.250Z,51.67
2022-08-25T05:33:58.234Z,51.99
2022-08-25T05:34:31.265Z,51.90
2022-08-25T05:35:03.790Z,51.75
2022-08-25T05:35:38.997Z,51.37
2022-08-25T05:36:13.451Z,51.70
2022-08-25T05:36:48.712Z,51.44
2022-08-25T05:37:20.901Z,51.59
2022-08-25T05:37:53.086Z,51.36
2022-08-25T05:38:27.882Z,51.53
2022-08-25T05:39:00.147Z,51.35
2022-08-25T05:39:35.167Z,51.33
2022-08-25T05:40:09.014Z,51.26
2022-08-25T05:40:41.286Z,51.70
2022-08-25T05:41:20.541Z,51.46
2022-08-25T05:41:52.651Z,51.41
2022-08-25T05:42:25.259Z,51.67
2022-08-25T05:43:00.108Z,51.24
2022-08-25T05:43:32.949Z,51.18
2022-08-25T05:44:08.210Z,51.39
2022-08-25T05:44:40.447Z,51.27
2022-08-25T05:45:15.840Z,51.11
2022-08-25T05:45:56.800Z,51.50
2022-08-25T05:46:30.539Z,51.54
2022-08-25T05:47:04.502Z,51.16
2022-08-25T05:47:39.292Z,50.97
2022-08-25T05:48:12.987Z,51.19
2022-08-25T05:48:45.848Z,51.26
2022-08-25T05:49:20.906Z,50.84
2022-08-25T05:49:53.129Z,50.74
2022-08-25T05:50:25.457Z,51.19
2022-08-25T05:51:02.731Z,50.99
2022-08-25T05:51:34.885Z,50.61
2022-08-25T05:52:09.805Z,50.72
2022-08-25T05:52:42.046Z,50.99
2022-08-25T05:53:14.171Z,51.04
2022-08-25T05:53:51.956Z,50.94
2022-08-25T05:54:24.468Z,51.01
2022-08-25T05:54:56.634Z,51.03
2022-08-25T05:55:31.596Z,50.95
2022-08-25T05:56:04.366Z,50.57
2022-08-25T05:56:40.205Z,50.53
2022-08-25T05:57:14.952Z,50.75
2022-08-25T05:57:47.199Z,50.83
2022-08-25T05:58:19.594Z,50.62
2022-08-25T05:58:54.379Z,50.52
2022-08-25T05:59:26.834Z,50.65
2022-08-25T05:59:59.039Z,50.80
2022-08-25T06:00:33.897Z,50.32
2022-08-25T06:01:21.465Z,50.78
2022-08-25T06:02:08.910Z,50.80
2022-08-25T06:02:41.554Z,50.76
2022-08-25T06:03:13.788Z,50.97
2022-08-25T06:03:46.736Z,51.04
2022-08-25T06:04:22.753Z,50.69
2022-08-25T06:04:54.918Z,51.07
2022-08-25T06:05:29.764Z,51.09
2022-08-25T06:06:07.305Z,50.67
2022-08-25T06:06:40.370Z,50.84
2022-08-25T06:07:15.241Z,50.95
2022-08-25T06:07:48.850Z,51.15
2022-08-25T06:08:21.183Z,50.97
2022-08-25T06:08:56.000Z,50.81
2022-08-25T06:09:28.225Z,50.47
2022-08-25T06:10:00.397Z,50.88
2022-08-25T06:10:35.574Z,50.43
2022-08-25T06:11:07.795Z,50.28
2022-08-25T06:11:43.123Z,50.21
2022-08-25T06:12:17.870Z,50.36
2022-08-25T06:12:50.278Z,50.14
2022-08-25T06:13:28.791Z,50.14
2022-08-25T06:14:03.930Z,50.58
2022-08-25T06:14:36.190Z,50.35
2022-08-25T06:15:13.411Z,50.16
2022-08-25T06:15:45.549Z,50.25
2022-08-25T06:16:18.443Z,50.34
2022-08-25T06:16:53.951Z,50.18
2022-08-25T06:17:26.174Z,50.00
2022-08-25T06:18:01.710Z,50.25
2022-08-25T06:18:36.868Z,50.16
2022-08-25T06:19:10.622Z,50.10
2022-08-25T06:19:45.962Z,50.42
2022-08-25T06:20:22.137Z,50.22
2022-08-25T06:20:57.717Z,50.22
2022-08-25T06:21:32.564Z,50.27
2022-08-25T06:22:04.752Z,49.86
2022-08-25T06:22:37.815Z,50.24
2022-08-25T06:23:13.061Z,50.31
2022-08-25T06:23:45.257Z,50.30
2022-08-25T06:24:17.533Z,50.55
2022-08-25T06:24:52.326Z,50.32
2022-08-25T06:25:26.237Z,50.34
2022-08-25T06:26:00.974Z,50.50
2022-08-25T06:26:33.841Z,50.43
2022-08-25T06:27:08.704Z,50.55
2022-08-25T06:27:43.686Z,50.06
2022-08-25T06:28:15.983Z,50.14
2022-08-25T06:28:50.981Z,50.27
2022-08-25T06:29:23.269Z,49.87
2022-08-25T06:29:58.043Z,50.34
2022-08-25T06:30:39.383Z,50.43
2022-08-25T06:31:14.346Z,50.08
2022-08-25T06:31:47.338Z,50.15
2022-08-25T06:32:19.598Z,50.37
2022-08-25T06:32:54.355Z,50.24
2022-08-25T06:33:26.474Z,50.60
2022-08-25T06:34:01.228Z,50.56
2022-08-25T06:34:34.146Z,49.82
2022-08-25T06:35:11.610Z,50.03
2022-08-25T06:35:44.585Z,49.51
2022-08-25T06:36:19.436Z,49.43
2022-08-25T06:36:51.771Z,49.17
2022-08-25T06:37:25.324Z,49.12
2022-08-25T06:38:00.548Z,49.37
2022-08-25T06:38:32.819Z,49.31
2022-08-25T06:39:08.029Z,49.32
2022-08-25T06:39:42.942Z,49.01
2022-08-25T06:40:18.611Z,49.06
2022-08-25T06:40:52.190Z,49.57
2022-08-25T06:41:36.506Z,49.21
2022-08-25T06:42:34.476Z,49.61
2022-08-25T06:43:09.014Z,49.23
2022-08-25T06:43:47.993Z,49.29
2022-08-25T06:44:26.415Z,48.93
2022-08-25T06:44:58.591Z,48.65
2022-08-25T06:45:33.671Z,48.64
2022-08-25T06:46:10.408Z,48.91
2022-08-25T06:46:42.717Z,48.20
2022-08-25T06:47:18.124Z,47.96
2022-08-25T06:47:50.989Z,48.09
2022-08-25T06:48:26.128Z,47.68
2022-08-25T06:48:58.421Z,47.64
2022-08-25T06:49:35.589Z,47.71
2022-08-25T06:50:11.792Z,47.61
2022-08-25T06:50:44.880Z,48.21
2022-08-25T06:51:21.980Z,48.02
2022-08-25T06:51:54.253Z,47.72
2022-08-25T06:52:29.553Z,47.82
2022-08-25T06:53:01.855Z,47.96
2022-08-25T06:53:37.033Z,47.75
2022-08-25T06:54:11.181Z,47.85
2022-08-25T06:54:45.963Z,47.79
2022-08-25T06:55:21.826Z,47.11
2022-08-25T06:56:05.944Z,47.31
2022-08-25T06:56:40.436Z,47.16
2022-08-25T06:57:15.869Z,47.14
2022-08-25T06:57:53.103Z,46.84
2022-08-25T06:58:27.370Z,47.05
2022-08-25T06:59:04.094Z,47.10
2022-08-25T06:59:37.527Z,47.29
2022-08-25T07:00:14.610Z,47.17
2022-08-25T07:00:49.445Z,46.64
2022-08-25T07:01:26.394Z,46.89
2022-08-25T07:02:03.105Z,46.91
2022-08-25T07:02:35.667Z,46.86
2022-08-25T07:03:10.970Z,46.68
2022-08-25T07:03:43.934Z,46.74
2022-08-25T07:04:16.181Z,46.38
2022-08-25T07:04:53.681Z,46.78
2022-08-25T07:05:33.594Z,46.62
2022-08-25T07:06:12.928Z,46.69
2022-08-25T07:06:47.908Z,46.54
2022-08-25T07:07:20.337Z,46.43
2022-08-25T07:07:52.566Z,46.62
2022-08-25T07:08:27.374Z,47.08
2022-08-25T07:09:00.118Z,46.77
2022-08-25T07:09:35.200Z,46.38
2022-08-25T07:10:13.287Z,46.65
2022-08-25T07:10:48.059Z,46.81
2022-08-25T07:11:21.582Z,46.93
2022-08-25T07:11:56.711Z,46.99
2022-08-25T07:12:29.054Z,46.71
2022-08-25T07:13:06.537Z,46.45
2022-08-25T07:13:39.456Z,46.43
2022-08-25T07:14:13.961Z,46.35
2022-08-25T07:15:03.477Z,46.23
2022-08-25T07:15:38.552Z,46.51
2022-08-25T07:16:15.683Z,45.96
2022-08-25T07:16:50.425Z,45.66
2022-08-25T07:17:27.294Z,46.13
2022-08-25T07:17:59.897Z,45.79
2022-08-25T07:18:35.190Z,45.69
2022-08-25T07:19:08.434Z,45.78
2022-08-25T07:19:41.001Z,45.43
2022-08-25T07:20:16.105Z,45.55
2022-08-25T07:20:48.703Z,45.47
2022-08-25T07:21:24.778Z,45.30
2022-08-25T07:22:03.559Z,45.87
2022-08-25T07:22:35.896Z,46.63
2022-08-25T07:23:08.084Z,45.90
2022-08-25T07:23:43.381Z,45.76
2022-08-25T07:24:15.616Z,45.54
2022-08-25T07:24:47.917Z,45.37
2022-08-25T07:25:22.763Z,46.15
2022-08-25T07:25:55.710Z,45.28
2022-08-25T07:26:37.841Z,45.25
2022-08-25T07:27:13.216Z,45.46
2022-08-25T07:27:45.578Z,46.17
2022-08-25T07:28:21.953Z,45.95